Terminal Aerodrome Forecast
Issued by NWS

Home | Current Version | Previous Version | Text Only | Print | Product List | Glossary On
Versions: 1 2 3 4 5 6 7 8 9 10 11 12 13 14 15 16 17
000
FTUS42 KTBW 310536
TAFPIE
TAF
KPIE 310536Z 3106/0106 VRB04KT P6SM FEW010 SCT020 BKN100
     FM311400 08007KT P6SM SCT025 BKN250
     FM311600 20010KT P6SM VCTS SCT020CB BKN050 BKN250
     FM010300 15004KT P6SM SCT035 BKN250=

USA.gov is the U.S. government's official web portal to all federal, state and local government web resources and services.